createdAt,value
2018-09-23T00:07:00.409Z,98037.41
2018-09-23T00:10:53.027Z,98046.31
2018-09-23T00:12:06.897Z,98040.88
2018-09-23T00:13:20.325Z,98035.59
2018-09-23T00:14:25.945Z,98037.98
2018-09-23T00:15:29.489Z,98036.38
2018-09-23T00:16:33.375Z,98038.61
2018-09-23T00:17:37.416Z,98037.01
2018-09-23T00:18:40.559Z,98037.83
2018-09-23T00:19:52.187Z,98036.22
2018-09-23T00:21:10.620Z,98027.74
2018-09-23T00:22:24.555Z,98030.95
2018-09-23T00:24:58.579Z,98026.37
2018-09-23T00:27:38.894Z,98023.74
2018-09-23T00:30:43.496Z,98011.43
2018-09-23T00:31:49.174Z,98012.88
2018-09-23T00:32:52.187Z,98015.38
2018-09-23T00:33:57.906Z,98012.95
2018-09-23T00:35:00.837Z,98010.81
2018-09-23T00:36:37.856Z,98009.37
2018-09-23T00:37:57.259Z,98009.61
2018-09-23T00:39:17.183Z,98004.17
2018-09-23T00:40:23.920Z,98005.13
2018-09-23T00:41:32.749Z,98002.73
2018-09-23T00:42:48.441Z,97997.63
2018-09-23T00:45:27.918Z,97993.76
2018-09-23T00:46:42.479Z,97995.12
2018-09-23T00:48:29.079Z,97989.05
2018-09-23T00:54:15.023Z,97977.52
2018-09-23T00:55:22.689Z,97969.61
2018-09-23T00:57:46.130Z,97971.71
2018-09-23T00:58:58.844Z,97965.78
2018-09-23T01:00:06.465Z,97962.65
2018-09-23T01:01:11.757Z,97962.11
2018-09-23T01:02:25.768Z,97954.73
2018-09-23T01:03:28.991Z,97950.58
2018-09-23T01:04:34.953Z,97942.91
2018-09-23T01:05:41.321Z,97947.61
2018-09-23T01:06:45.745Z,97940.03
2018-09-23T01:07:49.674Z,97936.20
2018-09-23T01:08:52.611Z,97932.11
2018-09-23T01:09:55.538Z,97930.97
2018-09-23T01:10:58.699Z,97926.59
2018-09-23T01:12:01.708Z,97930.91
2018-09-23T01:13:12.550Z,97924.41
2018-09-23T01:14:26.402Z,97921.39
2018-09-23T01:15:31.525Z,97919.55
2018-09-23T01:16:34.825Z,97921.45
2018-09-23T01:17:37.674Z,97916.83
2018-09-23T01:18:40.585Z,97908.67
2018-09-23T01:19:53.615Z,97896.98
2018-09-23T01:22:37.612Z,97889.73
2018-09-23T01:23:41.117Z,97888.03
2018-09-23T01:24:46.346Z,97893.80
2018-09-23T01:25:51.594Z,97894.35
2018-09-23T01:26:54.912Z,97891.63
2018-09-23T01:28:02.968Z,97898.28
2018-09-23T01:30:41.458Z,97890.16
2018-09-23T01:38:47.161Z,97877.53
2018-09-23T01:42:41.305Z,97881.03
2018-09-23T01:44:04.395Z,97887.83
2018-09-23T01:45:12.492Z,97895.56
2018-09-23T01:48:19.949Z,97889.97
2018-09-23T01:49:47.900Z,97883.27
2018-09-23T01:52:11.003Z,97875.26
2018-09-23T01:53:30.287Z,97877.19
2018-09-23T01:54:34.518Z,97868.16
2018-09-23T02:00:31.526Z,97862.98
2018-09-23T02:01:34.810Z,97870.27
2018-09-23T02:02:37.745Z,97870.27
2018-09-23T02:03:40.556Z,97867.45
2018-09-23T02:04:43.381Z,97866.64
2018-09-23T02:05:49.333Z,97873.08
2018-09-23T02:06:52.477Z,97869.15
2018-09-23T02:09:25.931Z,97861.29
2018-09-23T02:10:34.253Z,97852.59
2018-09-23T02:11:40.226Z,97833.40
2018-09-23T02:14:13.308Z,97826.21
2018-09-23T02:15:24.514Z,97830.30
2018-09-23T02:16:33.621Z,97829.98
2018-09-23T02:17:38.713Z,97825.00
2018-09-23T02:19:57.565Z,97840.59
2018-09-23T02:21:03.355Z,97839.67
2018-09-23T02:23:27.765Z,97848.66
2018-09-23T02:24:33.669Z,97844.67
2018-09-23T02:25:42.848Z,97845.21
2018-09-23T02:26:59.364Z,97840.02
2018-09-23T02:28:17.498Z,97835.45
2018-09-23T02:29:21.745Z,97815.29
2018-09-23T02:30:29.270Z,97812.81
2018-09-23T02:31:35.575Z,97801.00
2018-09-23T02:32:38.932Z,97794.11
2018-09-23T02:33:42.395Z,97784.92
2018-09-23T02:34:45.782Z,97789.21
2018-09-23T02:35:50.091Z,97791.93
2018-09-23T02:36:53.608Z,97792.98
2018-09-23T02:38:00.237Z,97793.44
2018-09-23T02:39:04.795Z,97800.62
2018-09-23T02:40:13.723Z,97800.22
2018-09-23T02:41:17.815Z,97794.30
2018-09-23T02:42:21.660Z,97789.50
2018-09-23T02:43:27.643Z,97781.81
2018-09-23T02:45:43.759Z,97781.08
2018-09-23T02:46:50.644Z,97782.36
2018-09-23T02:47:57.278Z,97775.75
2018-09-23T02:50:11.301Z,97784.53
2018-09-23T02:51:18.595Z,97784.61
2018-09-23T02:52:21.899Z,97777.75
2018-09-23T02:53:29.056Z,97773.00
2018-09-23T02:54:37.495Z,97756.44
2018-09-23T02:55:41.530Z,97748.61
2018-09-23T02:56:49.485Z,97746.09
2018-09-23T02:57:54.104Z,97743.13
2018-09-23T02:58:58.726Z,97736.91
2018-09-23T03:00:01.943Z,97741.55
2018-09-23T03:01:08.401Z,97739.25
2018-09-23T03:02:15.200Z,97738.50
2018-09-23T03:03:20.765Z,97733.78
2018-09-23T03:04:28.879Z,97726.80
2018-09-23T03:06:56.758Z,97720.78
2018-09-23T03:08:06.998Z,97720.67
2018-09-23T03:09:11.253Z,97726.12
2018-09-23T03:10:16.905Z,97726.47
2018-09-23T03:11:20.503Z,97726.27
2018-09-23T03:12:25.641Z,97728.40
2018-09-23T03:13:29.568Z,97737.21
2018-09-23T03:14:33.036Z,97736.52
2018-09-23T03:15:40.206Z,97737.88
2018-09-23T03:16:45.911Z,97739.48
2018-09-23T03:17:52.318Z,97732.48
2018-09-23T03:18:56.701Z,97737.78
2018-09-23T03:20:00.680Z,97733.12
2018-09-23T03:21:07.703Z,97734.48
2018-09-23T03:22:11.199Z,97724.66
2018-09-23T03:23:16.660Z,97722.98
2018-09-23T03:24:20.734Z,97715.34
2018-09-23T03:25:23.919Z,97716.50
2018-09-23T03:26:27.745Z,97714.32
2018-09-23T03:27:37.813Z,97716.39
2018-09-23T03:29:57.884Z,97711.50
2018-09-23T03:31:03.242Z,97705.61
2018-09-23T03:32:17.187Z,97715.92
2018-09-23T03:34:38.826Z,97705.38
2018-09-23T03:35:41.759Z,97697.48
2018-09-23T03:36:44.725Z,97699.28
2018-09-23T03:37:47.917Z,97697.25
2018-09-23T03:38:50.940Z,97698.84
2018-09-23T03:39:53.886Z,97697.48
2018-09-23T03:40:56.745Z,97698.74
2018-09-23T03:42:00.112Z,97699.12
2018-09-23T03:43:03.053Z,97692.80
2018-09-23T03:44:06.395Z,97690.28
2018-09-23T03:45:09.429Z,97691.94
2018-09-23T03:46:12.331Z,97680.52
2018-09-23T03:47:15.248Z,97681.41
2018-09-23T03:48:19.030Z,97679.47
2018-09-23T03:49:21.961Z,97672.66
2018-09-23T03:50:25.064Z,97674.36
2018-09-23T03:51:28.207Z,97670.18
2018-09-23T03:52:35.990Z,97668.28
2018-09-23T03:53:41.800Z,97664.94
2018-09-23T03:54:47.541Z,97669.70
2018-09-23T03:55:53.491Z,97666.74
2018-09-23T03:56:58.290Z,97663.58
2018-09-23T03:58:02.007Z,97661.51
2018-09-23T03:59:06.099Z,97657.90
2018-09-23T04:00:09.102Z,97655.52
2018-09-23T04:01:12.361Z,97657.09
2018-09-23T04:03:31.433Z,97656.30
2018-09-23T04:04:38.025Z,97658.68
2018-09-23T04:05:41.993Z,97664.46
2018-09-23T04:06:46.450Z,97655.83
2018-09-23T04:07:51.811Z,97644.70
2018-09-23T04:09:01.574Z,97642.56
2018-09-23T04:10:07.143Z,97644.27
2018-09-23T04:11:12.143Z,97643.38
2018-09-23T04:12:23.364Z,97647.70
2018-09-23T04:14:55.524Z,97641.81
2018-09-23T04:15:59.450Z,97633.54
2018-09-23T04:17:06.320Z,97631.05
2018-09-23T04:18:12.936Z,97629.83
2018-09-23T04:19:16.524Z,97622.58
2018-09-23T04:20:20.185Z,97629.72
2018-09-23T04:21:23.431Z,97630.64
2018-09-23T04:22:27.551Z,97628.34
2018-09-23T04:23:30.462Z,97629.47
2018-09-23T04:24:33.780Z,97628.20
2018-09-23T04:25:36.844Z,97625.59
2018-09-23T04:26:39.642Z,97626.03
2018-09-23T04:27:42.803Z,97620.16
2018-09-23T04:28:45.704Z,97621.82
2018-09-23T04:29:48.686Z,97612.64
2018-09-23T04:30:51.732Z,97606.18
2018-09-23T04:32:04.416Z,97606.73
2018-09-23T04:33:08.768Z,97602.72
2018-09-23T04:34:12.955Z,97594.83
2018-09-23T04:35:16.028Z,97592.52
2018-09-23T04:36:19.494Z,97596.36
2018-09-23T04:37:22.389Z,97595.81
2018-09-23T04:38:25.549Z,97599.45
2018-09-23T04:39:28.540Z,97599.61
2018-09-23T04:40:33.124Z,97606.75
2018-09-23T04:41:36.924Z,97605.76
2018-09-23T04:42:39.773Z,97598.38
2018-09-23T04:43:42.809Z,97599.17
2018-09-23T04:44:45.864Z,97596.45
2018-09-23T04:45:50.788Z,97596.08
2018-09-23T04:47:13.924Z,97586.90
2018-09-23T04:48:16.912Z,97585.44
2018-09-23T04:49:21.018Z,97586.66
2018-09-23T04:50:24.074Z,97584.08
2018-09-23T04:51:27.578Z,97584.96
2018-09-23T04:52:33.760Z,97579.05
2018-09-23T04:53:36.933Z,97571.36
2018-09-23T04:54:39.853Z,97575.44
2018-09-23T04:55:42.712Z,97576.25
2018-09-23T04:56:46.312Z,97582.81
2018-09-23T04:58:05.765Z,97577.85
2018-09-23T04:59:17.251Z,97586.92
2018-09-23T05:01:44.191Z,97571.96
2018-09-23T05:03:00.154Z,97569.69
2018-09-23T05:04:24.076Z,97567.63
2018-09-23T05:05:31.664Z,97567.63
2018-09-23T05:06:38.383Z,97567.98
2018-09-23T05:07:49.246Z,97563.67
2018-09-23T05:08:59.889Z,97566.76
2018-09-23T05:10:06.794Z,97562.91
2018-09-23T05:11:13.788Z,97557.23
2018-09-23T05:12:28.934Z,97551.53
2018-09-23T05:13:36.341Z,97550.48
2018-09-23T05:14:46.918Z,97548.84
2018-09-23T05:15:53.363Z,97554.41
2018-09-23T05:16:57.622Z,97560.65
2018-09-23T05:18:06.220Z,97562.33
2018-09-23T05:19:11.288Z,97559.03
2018-09-23T05:20:19.950Z,97559.38
2018-09-23T05:21:30.764Z,97559.39
2018-09-23T05:22:41.383Z,97560.76
2018-09-23T05:25:03.120Z,97558.81
2018-09-23T05:26:11.468Z,97561.90
2018-09-23T05:27:16.257Z,97561.54
2018-09-23T05:28:25.646Z,97558.03
2018-09-23T05:29:31.869Z,97554.86
2018-09-23T05:30:52.066Z,97540.81
2018-09-23T05:45:57.905Z,97534.23
2018-09-23T05:47:02.606Z,97528.37
2018-09-23T05:48:12.435Z,97524.95
2018-09-23T05:49:28.566Z,97523.72
2018-09-23T05:51:53.234Z,97525.09
2018-09-23T05:53:07.025Z,97522.91
2018-09-23T05:54:26.198Z,97518.51
2018-09-23T05:55:29.717Z,97514.19
2018-09-23T05:56:48.195Z,97513.06
2018-09-23T05:59:07.307Z,97510.79
2018-09-23T06:00:23.103Z,97510.68
2018-09-23T06:01:45.179Z,97510.88
2018-09-23T06:03:02.321Z,97511.81
2018-09-23T06:04:10.879Z,97507.16
2018-09-23T06:05:27.646Z,97503.08
2018-09-23T06:06:42.534Z,97516.11
2018-09-23T06:07:57.359Z,97513.38
2018-09-23T06:09:17.108Z,97511.34
2018-09-23T06:10:28.226Z,97511.00
2018-09-23T06:11:38.252Z,97496.73
2018-09-23T06:12:55.114Z,97499.45
2018-09-23T06:15:20.054Z,97495.47
2018-09-23T06:16:30.504Z,97495.38
2018-09-23T06:20:21.792Z,97484.03
2018-09-23T06:22:50.460Z,97482.31
2018-09-23T06:23:58.388Z,97481.55
2018-09-23T06:25:09.677Z,97484.16
2018-09-23T06:26:18.842Z,97485.52
2018-09-23T06:27:27.302Z,97485.72
2018-09-23T06:28:41.381Z,97474.95
2018-09-23T06:29:49.974Z,97475.17
2018-09-23T06:30:57.957Z,97476.08
2018-09-23T06:33:18.407Z,97473.23
2018-09-23T06:34:31.621Z,97474.28
2018-09-23T06:38:15.891Z,97464.28
2018-09-23T06:39:25.528Z,97466.55
2018-09-23T06:40:39.766Z,97467.36
2018-09-23T06:41:46.375Z,97462.92
2018-09-23T06:42:53.534Z,97465.64
2018-09-23T06:43:57.448Z,97463.82
2018-09-23T06:45:08.551Z,97463.94
2018-09-23T06:46:12.928Z,97472.11
2018-09-23T06:47:22.761Z,97469.27
2018-09-23T06:48:33.278Z,97476.30
2018-09-23T06:49:46.700Z,97477.44
2018-09-23T06:50:57.472Z,97475.06
2018-09-23T06:52:07.325Z,97471.44
2018-09-23T06:54:34.225Z,97473.92
2018-09-23T06:55:49.240Z,97479.61
2018-09-23T06:57:05.016Z,97474.94
2018-09-23T06:59:31.215Z,97467.78
2018-09-23T07:00:35.178Z,97463.58
2018-09-23T07:01:38.089Z,97460.85
2018-09-23T07:02:50.704Z,97465.87
2018-09-23T07:03:58.909Z,97464.50
2018-09-23T07:05:06.852Z,97465.52
2018-09-23T07:06:12.783Z,97462.67
2018-09-23T07:07:16.943Z,97458.36
2018-09-23T07:08:24.493Z,97460.73
2018-09-23T07:09:32.002Z,97459.59
2018-09-23T07:10:35.007Z,97447.80
2018-09-23T07:11:40.717Z,97451.97
2018-09-23T07:12:44.288Z,97443.80
2018-09-23T07:13:47.224Z,97442.00
2018-09-23T07:14:55.652Z,97436.54
2018-09-23T07:16:08.565Z,97437.91
2018-09-23T07:17:14.509Z,97441.30
2018-09-23T07:20:51.691Z,97430.77
2018-09-23T07:21:57.032Z,97433.50
2018-09-23T07:22:59.972Z,97433.72
2018-09-23T07:24:03.364Z,97429.84
2018-09-23T07:25:06.372Z,97431.20
2018-09-23T07:26:13.430Z,97431.52
2018-09-23T07:27:17.723Z,97430.95
2018-09-23T07:28:20.583Z,97431.38
2018-09-23T07:29:24.649Z,97433.63
2018-09-23T07:30:28.464Z,97432.63
2018-09-23T07:31:31.330Z,97422.78
2018-09-23T07:32:37.049Z,97427.06
2018-09-23T07:33:40.404Z,97427.05
2018-09-23T07:34:43.362Z,97424.45
2018-09-23T07:35:47.477Z,97423.77
2018-09-23T07:36:51.312Z,97420.47
2018-09-23T07:37:54.589Z,97415.84
2018-09-23T07:38:57.950Z,97415.03
2018-09-23T07:40:02.858Z,97413.88
2018-09-23T07:41:29.114Z,97413.28
2018-09-23T07:45:27.482Z,97410.98
2018-09-23T07:46:48.036Z,97411.79
2018-09-23T07:49:12.633Z,97421.91
2018-09-23T07:50:16.273Z,97412.91
2018-09-23T07:51:20.082Z,97419.34
2018-09-23T07:52:25.655Z,97414.45
2018-09-23T07:53:31.026Z,97415.83
2018-09-23T07:54:42.025Z,97422.77
2018-09-23T07:59:47.628Z,97413.12
2018-09-23T08:00:55.271Z,97408.66
2018-09-23T08:01:59.336Z,97409.00
2018-09-23T08:03:05.329Z,97409.22
2018-09-23T08:04:12.502Z,97407.98
2018-09-23T08:05:18.906Z,97410.91
2018-09-23T08:06:38.393Z,97409.32
2018-09-23T08:09:36.401Z,97402.83
2018-09-23T08:10:40.592Z,97407.50
2018-09-23T08:11:59.690Z,97404.52
2018-09-23T08:13:09.366Z,97398.71
2018-09-23T08:15:29.365Z,97402.16
2018-09-23T08:16:45.314Z,97398.16
2018-09-23T08:17:53.589Z,97397.70
2018-09-23T08:18:59.301Z,97397.84
2018-09-23T08:20:14.355Z,97391.89
2018-09-23T08:21:25.980Z,97392.77
2018-09-23T08:22:42.683Z,97393.48
2018-09-23T08:23:57.613Z,97395.17
2018-09-23T08:25:19.183Z,97392.74
2018-09-23T08:26:30.416Z,97393.33
2018-09-23T08:27:35.818Z,97387.77
2018-09-23T08:28:41.785Z,97384.33
2018-09-23T08:29:46.142Z,97390.47
2018-09-23T08:32:13.818Z,97386.30
2018-09-23T08:33:31.924Z,97383.67
2018-09-23T08:37:03.420Z,97385.03
2018-09-23T08:38:11.577Z,97371.45
2018-09-23T08:39:23.092Z,97372.23
2018-09-23T08:40:31.241Z,97373.33
2018-09-23T08:42:58.379Z,97367.37
2018-09-23T08:46:35.081Z,97364.73
2018-09-23T08:47:39.729Z,97367.77
2018-09-23T08:48:44.117Z,97361.86
2018-09-23T08:50:02.393Z,97361.64
2018-09-23T08:51:11.491Z,97361.50
2018-09-23T08:52:22.650Z,97357.36
2018-09-23T08:53:35.035Z,97352.94
2018-09-23T08:56:28.336Z,97354.44
2018-09-23T08:57:55.188Z,97356.45
2018-09-23T09:01:57.326Z,97345.35
2018-09-23T09:08:14.145Z,97339.94
2018-09-23T09:09:26.861Z,97340.97
2018-09-23T09:10:31.748Z,97340.16
2018-09-23T09:11:44.423Z,97339.16
2018-09-23T09:12:47.978Z,97334.84
2018-09-23T09:13:55.629Z,97332.52
2018-09-23T09:15:00.370Z,97334.47
2018-09-23T09:16:16.085Z,97330.66
2018-09-23T09:19:01.351Z,97328.20
2018-09-23T09:20:11.698Z,97323.19
2018-09-23T09:21:21.786Z,97322.38
2018-09-23T09:22:43.676Z,97315.05
2018-09-23T09:25:17.553Z,97313.64
2018-09-23T09:26:30.697Z,97314.78
2018-09-23T09:27:47.120Z,97314.51
2018-09-23T09:29:01.461Z,97313.37
2018-09-23T09:31:46.556Z,97307.69
2018-09-23T09:32:59.589Z,97301.23
2018-09-23T09:34:10.634Z,97301.09
2018-09-23T09:37:05.965Z,97288.25
2018-09-23T09:38:30.653Z,97286.97
2018-09-23T09:39:40.335Z,97273.60
2018-09-23T09:41:03.107Z,97276.19
2018-09-23T09:42:16.403Z,97268.67
2018-09-23T09:43:21.292Z,97273.41
2018-09-23T09:44:28.738Z,97269.67
2018-09-23T09:45:32.059Z,97263.54
2018-09-23T09:46:35.876Z,97267.58
2018-09-23T09:47:42.281Z,97258.50
2018-09-23T09:48:45.528Z,97260.88
2018-09-23T09:49:51.113Z,97265.16
2018-09-23T09:50:56.015Z,97260.48
2018-09-23T09:51:59.412Z,97258.06
2018-09-23T09:53:04.278Z,97262.60
2018-09-23T09:54:12.534Z,97258.51
2018-09-23T09:55:17.768Z,97250.66
2018-09-23T09:56:25.696Z,97251.02
2018-09-23T09:57:30.300Z,97248.87
2018-09-23T09:58:35.435Z,97248.65
2018-09-23T09:59:39.327Z,97235.50
2018-09-23T10:01:53.355Z,97230.18
2018-09-23T10:02:58.615Z,97223.11
2018-09-23T10:04:07.348Z,97221.95
2018-09-23T10:06:23.791Z,97223.20
2018-09-23T10:07:28.110Z,97215.28
2018-09-23T10:11:17.818Z,97206.95
2018-09-23T10:12:28.781Z,97205.51
2018-09-23T10:13:34.325Z,97204.92
2018-09-23T10:14:42.654Z,97200.62
2018-09-23T10:15:46.812Z,97202.77
2018-09-23T10:18:06.207Z,97198.26
2018-09-23T10:19:16.338Z,97190.77
2018-09-23T10:20:22.940Z,97185.97
2018-09-23T10:21:28.035Z,97184.09
2018-09-23T10:24:18.369Z,97174.60
2018-09-23T10:29:36.105Z,97158.29
2018-09-23T10:31:07.567Z,97158.22
2018-09-23T13:34:41.679Z,96912.48
2018-09-23T13:35:45.247Z,96896.69
2018-09-23T13:36:48.388Z,96882.60
2018-09-23T13:37:53.045Z,96877.80
2018-09-23T13:38:57.057Z,96897.59
2018-09-23T13:40:00.012Z,96916.42
2018-09-23T13:41:05.895Z,96929.85
2018-09-23T13:42:10.233Z,96956.41
2018-09-23T13:43:13.841Z,96968.29
2018-09-23T13:44:16.828Z,96981.66
2018-09-23T13:45:26.803Z,96986.89
2018-09-23T13:46:30.540Z,96997.97
2018-09-23T13:47:33.894Z,97013.94
2018-09-23T13:48:36.725Z,97036.55
2018-09-23T13:49:39.804Z,97045.40
2018-09-23T13:50:44.233Z,97007.27
2018-09-23T13:51:51.317Z,96987.88
2018-09-23T13:52:54.389Z,96987.32
2018-09-23T13:53:57.666Z,96988.17
2018-09-23T13:55:01.337Z,96999.31
2018-09-23T13:56:04.113Z,96983.30
2018-09-23T13:57:06.883Z,96963.77
2018-09-23T13:58:09.825Z,96929.26
2018-09-23T13:59:12.895Z,96903.53
2018-09-23T14:00:16.633Z,96893.42
2018-09-23T14:01:19.561Z,96879.28
2018-09-23T14:02:22.401Z,96889.41
2018-09-23T14:03:25.159Z,96896.86
2018-09-23T14:04:27.899Z,96908.64
2018-09-23T14:05:32.691Z,96911.63
2018-09-23T14:06:35.462Z,96911.38
2018-09-23T14:07:39.733Z,96906.05
2018-09-23T14:08:44.240Z,96911.36
2018-09-23T14:09:47.012Z,96914.80
2018-09-23T14:10:52.498Z,96916.38
2018-09-23T14:11:55.816Z,96905.63
2018-09-23T14:12:58.621Z,96907.52
2018-09-23T14:14:02.431Z,96916.75
2018-09-23T14:15:05.354Z,96909.62
2018-09-23T14:16:08.429Z,96906.05
2018-09-23T14:17:11.339Z,96904.10
2018-09-23T14:18:14.557Z,96876.59
2018-09-23T14:19:19.397Z,96852.84
2018-09-23T14:20:22.565Z,96838.72
2018-09-23T14:21:26.561Z,96827.96
2018-09-23T14:22:30.352Z,96824.64
2018-09-23T14:23:34.545Z,96804.60
2018-09-23T14:24:38.506Z,96797.30
2018-09-23T14:25:44.199Z,96805.97
2018-09-23T14:26:46.953Z,96815.20
2018-09-23T14:27:50.194Z,96824.34
2018-09-23T14:28:59.445Z,96819.62
2018-09-23T14:30:02.694Z,96843.77
2018-09-23T14:31:05.553Z,96832.69
2018-09-23T14:32:10.053Z,96818.98
2018-09-23T14:33:12.743Z,96799.87
2018-09-23T14:34:15.569Z,96808.75
2018-09-23T14:35:18.659Z,96817.10
2018-09-23T14:36:23.194Z,96845.07
2018-09-23T14:37:25.943Z,96847.03
2018-09-23T14:38:28.755Z,96835.16
2018-09-23T14:39:31.525Z,96836.30
2018-09-23T14:40:34.300Z,96843.34
2018-09-23T14:41:38.522Z,96855.31
2018-09-23T14:42:41.651Z,96852.16
2018-09-23T14:43:44.547Z,96858.98
2018-09-23T14:44:49.357Z,96852.84
2018-09-23T14:45:53.834Z,96865.97
2018-09-23T14:46:56.703Z,96876.67
2018-09-23T14:47:59.589Z,96892.00
2018-09-23T14:49:02.945Z,96910.66
2018-09-23T14:50:06.408Z,96919.46
2018-09-23T14:51:09.252Z,96924.77
2018-09-23T14:52:12.129Z,96928.73
2018-09-23T14:53:15.625Z,96945.02
2018-09-23T14:54:18.481Z,96967.53
2018-09-23T14:55:24.302Z,96958.91
2018-09-23T14:56:27.025Z,96971.34
2018-09-23T14:57:29.844Z,96975.22
2018-09-23T14:58:33.914Z,96998.64
2018-09-23T14:59:36.796Z,97011.00
2018-09-23T15:00:46.083Z,97024.16
2018-09-23T15:01:49.134Z,97026.19
2018-09-23T15:02:52.711Z,97030.42
2018-09-23T15:03:55.585Z,97029.35
2018-09-23T15:05:02.620Z,97032.62
2018-09-23T15:06:06.126Z,97048.98
2018-09-23T15:07:09.396Z,97053.37
2018-09-23T15:08:14.923Z,97066.03
2018-09-23T15:09:17.873Z,97074.92
2018-09-23T15:10:23.879Z,97074.00
2018-09-23T15:11:28.277Z,97075.64
2018-09-23T15:12:32.774Z,97082.45
2018-09-23T15:13:37.494Z,97092.69
2018-09-23T15:14:41.362Z,97096.14
2018-09-23T15:15:45.209Z,97098.20
2018-09-23T15:16:49.025Z,97096.00
2018-09-23T15:17:52.960Z,97097.86
2018-09-23T15:18:55.800Z,97097.59
2018-09-23T15:20:01.245Z,97098.78
2018-09-23T15:21:04.301Z,97120.28
2018-09-23T15:22:07.300Z,97128.59
2018-09-23T15:23:10.378Z,97139.36
2018-09-23T15:24:15.679Z,97135.53
2018-09-23T15:25:18.510Z,97113.14
2018-09-23T15:26:21.274Z,97124.31
2018-09-23T15:27:24.011Z,97129.31
2018-09-23T15:28:27.366Z,97138.35
2018-09-23T15:29:30.127Z,97132.66
2018-09-23T15:30:33.433Z,97135.48
2018-09-23T15:31:36.246Z,97133.44
2018-09-23T15:32:39.931Z,97143.33
2018-09-23T15:33:42.750Z,97154.00
2018-09-23T15:34:52.623Z,97169.21
2018-09-23T15:35:55.890Z,97184.59
2018-09-23T15:36:58.702Z,97191.30
2018-09-23T15:38:03.557Z,97209.16
2018-09-23T15:39:10.702Z,97214.38
2018-09-23T15:40:14.564Z,97223.03
2018-09-23T15:41:18.219Z,97227.60
2018-09-23T15:42:23.408Z,97232.59
2018-09-23T15:44:37.781Z,97230.34
2018-09-23T15:45:44.204Z,97238.44
2018-09-23T15:46:48.877Z,97246.27
2018-09-23T15:47:53.702Z,97244.48
2018-09-23T15:48:59.212Z,97264.21
2018-09-23T15:50:03.590Z,97264.56
2018-09-23T15:51:06.965Z,97276.92
2018-09-23T15:52:10.671Z,97276.14
2018-09-23T15:53:16.233Z,97268.42
2018-09-23T15:54:20.063Z,97276.05
2018-09-23T15:55:27.352Z,97266.86
2018-09-23T15:56:30.758Z,97258.58
2018-09-23T15:57:34.251Z,97265.27
2018-09-23T15:58:38.735Z,97268.53
2018-09-23T16:00:53.674Z,97273.95
2018-09-23T16:02:03.090Z,97267.39
2018-09-23T16:03:06.594Z,97256.73
2018-09-23T16:04:09.700Z,97255.84
2018-09-23T16:05:12.458Z,97258.89
2018-09-23T16:06:16.539Z,97254.15
2018-09-23T16:07:21.011Z,97256.17
2018-09-23T16:08:27.693Z,97263.20
2018-09-23T16:09:31.232Z,97282.36
2018-09-23T16:10:38.971Z,97296.99
2018-09-23T16:11:43.377Z,97300.19
2018-09-23T16:12:48.414Z,97309.05
2018-09-23T16:13:54.682Z,97309.83
2018-09-23T16:14:58.347Z,97305.41
2018-09-23T16:16:02.910Z,97310.84
2018-09-23T16:17:06.447Z,97320.83
2018-09-23T16:18:14.441Z,97324.91
2018-09-23T16:19:19.350Z,97336.10
2018-09-23T16:20:22.123Z,97338.05
2018-09-23T16:21:26.052Z,97329.53
2018-09-23T16:22:32.041Z,97315.73
2018-09-23T16:23:36.425Z,97310.28
2018-09-23T16:24:39.419Z,97307.32
2018-09-23T16:25:42.264Z,97323.30
2018-09-23T16:26:47.053Z,97338.95
2018-09-23T16:27:52.020Z,97357.11
2018-09-23T16:28:55.567Z,97372.08
2018-09-23T16:29:59.513Z,97387.16
2018-09-23T16:31:04.424Z,97389.22
2018-09-23T16:44:36.839Z,97414.30
2018-09-23T16:45:41.962Z,97416.32
2018-09-23T16:46:46.423Z,97408.73
2018-09-23T16:47:49.747Z,97415.19
2018-09-23T16:48:53.533Z,97427.90
2018-09-23T16:49:58.381Z,97460.66
2018-09-23T16:51:04.141Z,97471.08
2018-09-23T16:52:12.338Z,97472.91
2018-09-23T16:53:17.152Z,97468.47
2018-09-23T16:54:20.217Z,97465.97
2018-09-23T16:55:23.385Z,97469.34
2018-09-23T16:56:29.373Z,97477.51
2018-09-23T16:57:32.236Z,97479.63
2018-09-23T16:58:35.653Z,97479.27
2018-09-23T16:59:41.098Z,97483.13
2018-09-23T17:00:44.733Z,97492.75
2018-09-23T17:01:47.521Z,97483.91
2018-09-23T17:02:52.602Z,97486.98
2018-09-23T17:04:02.675Z,97491.86
2018-09-23T17:05:06.625Z,97509.17
2018-09-23T17:06:12.640Z,97513.27
2018-09-23T17:07:15.429Z,97508.22
2018-09-23T17:08:21.329Z,97506.16
2018-09-23T17:09:25.828Z,97519.98
2018-09-23T17:10:30.255Z,97535.17
2018-09-23T17:11:37.415Z,97525.52
2018-09-23T17:12:41.661Z,97528.34
2018-09-23T17:13:45.249Z,97530.38
2018-09-23T17:14:49.175Z,97526.67
2018-09-23T17:15:54.409Z,97534.91
2018-09-23T17:16:57.496Z,97539.22
2018-09-23T17:18:01.642Z,97530.86
2018-09-23T17:19:05.588Z,97541.59
2018-09-23T17:20:10.449Z,97551.35
2018-09-23T17:21:13.151Z,97560.05
2018-09-23T17:22:18.622Z,97570.55
2018-09-23T17:23:22.517Z,97571.30
2018-09-23T17:24:25.584Z,97581.52
2018-09-23T17:25:30.158Z,97582.67
2018-09-23T17:26:33.559Z,97583.46
2018-09-23T17:27:36.770Z,97587.50
2018-09-23T17:28:43.872Z,97589.06
2018-09-23T17:29:48.669Z,97596.43
2018-09-23T17:30:52.284Z,97604.92
2018-09-23T17:31:55.704Z,97605.37
2018-09-23T17:32:59.907Z,97615.69
2018-09-23T17:34:02.646Z,97613.12
2018-09-23T17:35:06.740Z,97618.17
2018-09-23T17:36:09.540Z,97622.45
2018-09-23T17:37:16.840Z,97623.66
2018-09-23T17:38:20.303Z,97621.73
2018-09-23T17:39:23.041Z,97622.87
2018-09-23T17:40:25.914Z,97622.64
2018-09-23T17:41:29.931Z,97627.05
2018-09-23T17:42:32.701Z,97633.51
2018-09-23T17:43:37.038Z,97638.37
2018-09-23T17:44:42.703Z,97657.87
2018-09-23T17:45:46.452Z,97671.12
2018-09-23T17:46:49.324Z,97682.56
2018-09-23T17:47:52.997Z,97688.20
2018-09-23T17:48:55.980Z,97701.34
2018-09-23T17:49:59.264Z,97706.78
2018-09-23T17:51:03.276Z,97717.41
2018-09-23T17:52:06.002Z,97727.80
2018-09-23T17:53:08.746Z,97736.04
2018-09-23T17:54:12.415Z,97736.62
2018-09-23T17:55:18.772Z,97736.28
2018-09-23T17:56:22.318Z,97734.41
2018-09-23T17:57:26.044Z,97740.13
2018-09-23T17:58:28.770Z,97737.31
2018-09-23T17:59:32.423Z,97751.69
2018-09-23T18:00:38.519Z,97775.65
2018-09-23T18:01:41.282Z,97779.98
2018-09-23T18:02:45.499Z,97784.73
2018-09-23T18:03:48.706Z,97803.06
2018-09-23T18:06:01.871Z,97807.66
2018-09-23T18:07:13.161Z,97809.19
2018-09-23T18:08:17.399Z,97803.03
2018-09-23T18:09:20.301Z,97814.95
2018-09-23T18:10:23.102Z,97815.03
2018-09-23T18:11:25.855Z,97821.82
2018-09-23T18:12:31.408Z,97818.86
2018-09-23T18:13:34.608Z,97828.91
2018-09-23T18:14:39.552Z,97842.73
2018-09-23T18:15:42.317Z,97840.18
2018-09-23T18:16:46.480Z,97840.35
2018-09-23T18:17:49.248Z,97843.39
2018-09-23T18:18:53.345Z,97843.94
2018-09-23T18:19:56.519Z,97844.59
2018-09-23T18:21:01.666Z,97852.90
2018-09-23T18:22:04.809Z,97852.73
2018-09-23T18:23:09.951Z,97860.55
2018-09-23T18:24:13.479Z,97848.25
2018-09-23T18:25:16.244Z,97861.53
2018-09-23T18:26:21.037Z,97854.74
2018-09-23T18:27:24.499Z,97864.78
2018-09-23T18:28:27.254Z,97869.02
2018-09-23T18:29:30.086Z,97870.70
2018-09-23T18:30:33.071Z,97872.63
2018-09-23T18:31:37.634Z,97887.08
2018-09-23T18:32:40.725Z,97878.77
2018-09-23T18:33:44.159Z,97889.44
2018-09-23T18:34:48.564Z,97895.91
2018-09-23T18:35:53.769Z,97903.83